Time;durP1;ratioP1;P1;durP2;ratioP2;P2;SDS_P1;SDS_P2;PMS_P1;PMS_P2;Temp;Humidity;BMP_temperature;BMP_pressure;BME280_temperature;BME280_humidity;BME280_pressure;Samples;Min_cycle;Max_cycle;Signal;HPM_P1;HPM_P2
2021/12/10 00:01:16;;;;;;;38.37;35.13;;;3.70;99.90;;;;;;5053257;28;21017;-68
2021/12/10 00:03:47;;;;;;;36.30;33.40;;;3.80;99.90;;;;;;5061314;28;20564;-67
2021/12/10 00:06:18;;;;;;;35.37;32.53;;;3.70;99.90;;;;;;5051805;28;20470;-68
2021/12/10 00:08:48;;;;;;;39.17;35.93;;;3.70;99.90;;;;;;5053137;28;20476;-67
2021/12/10 00:11:19;;;;;;;35.20;32.07;;;3.80;99.90;;;;;;5051442;28;20467;-68
2021/12/10 00:13:47;;;;;;;34.50;31.80;;;3.80;99.90;;;;;;5063179;28;20460;-68
2021/12/10 00:16:17;;;;;;;35.60;32.20;;;3.80;99.90;;;;;;5059078;28;20459;-68
2021/12/10 00:18:51;;;;;;;34.73;31.93;;;3.80;99.90;;;;;;5059287;28;20454;-67
2021/12/10 00:21:18;;;;;;;36.47;33.47;;;3.90;99.90;;;;;;5057348;28;20473;-68
2021/12/10 00:23:49;;;;;;;34.50;31.83;;;3.80;99.90;;;;;;5058363;28;20490;-68
2021/12/10 00:26:20;;;;;;;35.30;32.33;;;3.70;99.90;;;;;;5055930;28;20462;-68
2021/12/10 00:28:49;;;;;;;37.67;34.53;;;3.50;99.90;;;;;;5056200;28;20542;-68
2021/12/10 00:31:29;;;;;;;39.30;35.73;;;3.50;99.90;;;;;;5050687;28;20468;-68
2021/12/10 00:33:59;;;;;;;34.17;31.50;;;3.40;99.90;;;;;;5054781;28;20461;-68
2021/12/10 00:36:27;;;;;;;34.23;31.27;;;3.40;99.90;;;;;;5056493;28;20466;-68
2021/12/10 00:38:59;;;;;;;36.10;32.60;;;3.30;99.90;;;;;;5053501;28;20820;-68
2021/12/10 00:41:28;;;;;;;36.80;34.00;;;3.20;99.90;;;;;;5050787;28;20988;-67
2021/12/10 00:43:55;;;;;;;36.53;33.20;;;3.20;99.90;;;;;;5054434;28;20483;-68
2021/12/10 00:46:22;;;;;;;34.63;31.50;;;3.10;99.90;;;;;;5054462;28;20993;-67
2021/12/10 00:48:49;;;;;;;32.50;30.00;;;3.10;99.90;;;;;;5052164;28;20465;-68
2021/12/10 00:51:17;;;;;;;33.90;30.73;;;3.00;99.90;;;;;;5056959;28;20962;-68
2021/12/10 00:53:44;;;;;;;33.73;30.33;;;3.00;99.90;;;;;;5058813;28;20466;-68
2021/12/10 00:56:12;;;;;;;35.40;31.93;;;2.90;99.90;;;;;;5060407;28;20462;-68
2021/12/10 00:58:42;;;;;;;33.77;30.43;;;2.90;99.90;;;;;;5055987;28;20468;-67
2021/12/10 01:01:12;;;;;;;32.67;29.53;;;2.80;99.90;;;;;;5052792;28;20472;-68
2021/12/10 01:03:45;;;;;;;34.37;31.47;;;2.70;99.90;;;;;;5055628;28;20514;-68
2021/12/10 01:06:15;;;;;;;35.57;32.40;;;2.60;99.90;;;;;;5052013;28;20464;-68
2021/12/10 01:08:48;;;;;;;34.23;31.53;;;2.60;99.90;;;;;;5048435;28;20996;-67
2021/12/10 01:11:20;;;;;;;36.00;32.53;;;2.60;99.90;;;;;;5053448;28;20917;-68
2021/12/10 01:13:51;;;;;;;36.77;33.13;;;2.50;99.90;;;;;;5057791;28;20467;-67
2021/12/10 01:25:13;;;;;;;32.80;29.83;;;2.40;99.90;;;;;;5013310;28;20500;-68
2021/12/10 01:27:42;;;;;;;33.57;30.40;;;2.40;99.90;;;;;;5016868;28;20510;-68
2021/12/10 01:30:17;;;;;;;33.33;30.43;;;2.40;99.90;;;;;;5035748;28;20470;-68
2021/12/10 01:32:48;;;;;;;32.80;29.83;;;2.40;99.90;;;;;;5057633;28;20530;-67
2021/12/10 01:35:21;;;;;;;32.57;29.83;;;2.40;99.90;;;;;;5059544;28;20462;-68
2021/12/10 01:37:49;;;;;;;35.97;32.60;;;2.40;99.90;;;;;;5048206;28;20580;-67
2021/12/10 01:40:19;;;;;;;33.57;30.60;;;2.30;99.90;;;;;;5058570;28;20473;-68
2021/12/10 01:42:49;;;;;;;34.43;31.10;;;2.20;99.90;;;;;;5054107;28;20922;-68
2021/12/10 01:45:22;;;;;;;34.63;31.40;;;2.20;99.90;;;;;;5061795;28;20462;-67
2021/12/10 01:47:59;;;;;;;33.80;30.67;;;2.10;99.90;;;;;;5053310;28;20471;-67
2021/12/10 01:50:27;;;;;;;32.63;30.13;;;2.10;99.90;;;;;;5054858;28;20459;-67
2021/12/10 01:52:57;;;;;;;35.10;31.50;;;2.10;99.90;;;;;;5056112;28;20487;-67
2021/12/10 01:55:27;;;;;;;38.53;31.70;;;2.10;99.90;;;;;;5061500;28;20965;-67
2021/12/10 01:57:57;;;;;;;35.47;32.10;;;2.10;99.90;;;;;;5060031;28;20970;-67
2021/12/10 02:00:30;;;;;;;35.10;31.60;;;2.10;99.90;;;;;;5063535;28;20467;-68
2021/12/10 02:02:58;;;;;;;34.80;31.63;;;2.00;99.90;;;;;;5057884;28;20894;-67
2021/12/10 02:05:25;;;;;;;36.00;32.40;;;2.00;99.90;;;;;;5057322;28;20473;-67
2021/12/10 02:07:54;;;;;;;35.13;32.07;;;2.00;99.90;;;;;;5054634;28;20556;-67
2021/12/10 02:10:22;;;;;;;31.67;29.37;;;2.00;99.90;;;;;;5055756;28;20471;-67
2021/12/10 02:12:49;;;;;;;32.27;29.23;;;2.10;99.90;;;;;;5059197;28;20474;-67
2021/12/10 02:15:17;;;;;;;33.10;30.50;;;2.10;99.90;;;;;;5061740;28;20464;-68
2021/12/10 02:17:50;;;;;;;32.90;30.30;;;2.10;99.90;;;;;;5056539;28;20949;-68
2021/12/10 02:20:20;;;;;;;30.87;28.13;;;2.10;99.90;;;;;;5057235;28;20474;-67
2021/12/10 02:22:50;;;;;;;32.40;29.70;;;2.00;99.90;;;;;;5056575;28;20471;-68
2021/12/10 02:25:19;;;;;;;33.00;30.30;;;2.10;99.90;;;;;;5054849;28;20593;-68
2021/12/10 02:27:46;;;;;;;33.20;30.13;;;2.10;99.90;;;;;;5056361;28;20463;-68
2021/12/10 02:30:14;;;;;;;32.17;29.57;;;2.00;99.90;;;;;;5053174;28;20836;-67
2021/12/10 02:32:41;;;;;;;31.87;29.27;;;2.00;99.90;;;;;;5060190;28;20961;-67
2021/12/10 02:35:11;;;;;;;31.70;29.07;;;2.00;99.90;;;;;;5060915;28;20468;-67
2021/12/10 02:37:39;;;;;;;41.47;29.30;;;2.00;99.90;;;;;;5056860;28;20461;-67
2021/12/10 02:40:10;;;;;;;30.53;27.70;;;2.00;99.90;;;;;;5052445;28;20470;-67
2021/12/10 02:42:38;;;;;;;31.83;28.83;;;2.00;99.90;;;;;;5056514;28;20460;-68
2021/12/10 02:45:06;;;;;;;30.50;26.87;;;2.10;99.90;;;;;;5060706;28;20826;-67
2021/12/10 02:47:33;;;;;;;28.87;25.80;;;2.10;99.90;;;;;;5055772;28;20686;-68
2021/12/10 02:50:00;;;;;;;29.33;26.23;;;2.10;99.90;;;;;;5061297;28;20472;-67
2021/12/10 02:52:27;;;;;;;28.07;24.90;;;2.10;99.90;;;;;;5059944;28;20487;-67
2021/12/10 02:54:54;;;;;;;33.93;25.80;;;2.20;99.90;;;;;;5063866;28;20555;-67
2021/12/10 02:57:23;;;;;;;27.13;24.87;;;2.20;99.90;;;;;;5057348;28;20837;-67
2021/12/10 02:59:50;;;;;;;27.77;25.47;;;2.20;99.90;;;;;;5063451;28;20468;-67
2021/12/10 03:02:22;;;;;;;28.40;26.00;;;2.20;99.90;;;;;;5057958;28;20461;-67
2021/12/10 03:04:50;;;;;;;28.03;26.03;;;2.20;99.90;;;;;;5056894;28;20830;-67
2021/12/10 03:07:21;;;;;;;28.30;25.83;;;2.20;99.90;;;;;;5057343;28;20473;-67
2021/12/10 03:09:51;;;;;;;30.70;27.83;;;2.20;99.90;;;;;;5061381;28;20826;-67
2021/12/10 03:12:20;;;;;;;28.17;25.57;;;2.30;99.90;;;;;;5053698;28;20454;-67
2021/12/10 03:14:51;;;;;;;28.00;25.47;;;2.30;99.90;;;;;;5056537;28;20466;-67
2021/12/10 03:17:22;;;;;;;27.40;24.90;;;2.30;99.90;;;;;;5057583;28;20463;-67
2021/12/10 03:19:49;;;;;;;27.77;25.43;;;2.30;99.90;;;;;;5056830;28;20461;-67
2021/12/10 03:22:17;;;;;;;27.77;25.10;;;2.30;99.90;;;;;;5053327;28;20461;-67
2021/12/10 03:24:44;;;;;;;27.90;25.00;;;2.30;99.90;;;;;;5059005;28;20486;-67
2021/12/10 03:27:14;;;;;;;28.33;25.33;;;2.30;99.90;;;;;;5055765;28;20467;-67
2021/12/10 03:29:44;;;;;;;27.60;25.27;;;2.30;99.90;;;;;;5055590;28;20462;-67
2021/12/10 03:32:15;;;;;;;31.63;26.23;;;2.30;99.90;;;;;;5055390;28;20467;-67
2021/12/10 03:34:43;;;;;;;27.00;24.43;;;2.40;99.90;;;;;;5056658;28;20808;-67
2021/12/10 03:37:10;;;;;;;28.57;24.57;;;2.40;99.90;;;;;;5051367;28;20462;-67
2021/12/10 03:39:37;;;;;;;26.10;24.10;;;2.40;99.90;;;;;;5058432;28;20979;-67
2021/12/10 03:42:06;;;;;;;27.20;24.80;;;2.40;99.90;;;;;;5055805;28;20486;-67
2021/12/10 03:44:34;;;;;;;25.80;23.53;;;2.40;99.90;;;;;;5057728;28;20494;-67
2021/12/10 03:47:01;;;;;;;26.53;24.00;;;2.50;99.90;;;;;;5056182;28;20498;-67
2021/12/10 03:49:30;;;;;;;27.07;24.27;;;2.50;99.90;;;;;;5053536;28;20473;-67
2021/12/10 03:51:57;;;;;;;25.17;23.30;;;2.60;99.90;;;;;;5059665;28;20528;-67
2021/12/10 03:54:25;;;;;;;25.37;23.17;;;2.60;99.90;;;;;;5060612;28;20473;-67
2021/12/10 03:56:52;;;;;;;30.73;23.33;;;2.60;99.90;;;;;;5060466;28;20493;-67
2021/12/10 03:59:22;;;;;;;24.43;22.10;;;2.60;99.90;;;;;;5056854;28;20467;-67
2021/12/10 04:01:52;;;;;;;26.70;24.10;;;2.60;99.90;;;;;;5045534;28;20463;-67
2021/12/10 04:04:25;;;;;;;25.00;22.70;;;2.60;99.90;;;;;;5049552;28;20494;-67
2021/12/10 04:06:55;;;;;;;24.70;22.23;;;2.60;99.90;;;;;;5054453;28;20470;-67
2021/12/10 04:09:22;;;;;;;26.27;23.00;;;2.70;99.90;;;;;;5060837;28;20560;-67
2021/12/10 04:11:49;;;;;;;23.87;21.97;;;2.70;99.90;;;;;;5058533;28;20473;-67
2021/12/10 04:14:16;;;;;;;23.77;21.90;;;2.70;99.90;;;;;;5054779;28;20474;-67
2021/12/10 04:16:43;;;;;;;24.80;22.73;;;2.70;99.90;;;;;;5059623;28;20459;-67
2021/12/10 04:19:14;;;;;;;23.67;21.87;;;2.60;99.90;;;;;;5055361;28;20756;-67
2021/12/10 04:21:43;;;;;;;25.47;22.80;;;2.60;99.90;;;;;;5054755;28;20466;-67
2021/12/10 04:24:17;;;;;;;24.37;22.10;;;2.60;99.90;;;;;;5051132;28;20553;-67
2021/12/10 04:26:45;;;;;;;24.17;22.30;;;2.60;99.90;;;;;;5052933;28;20470;-67
2021/12/10 04:29:12;;;;;;;24.97;22.97;;;2.60;99.90;;;;;;5056147;28;20462;-67
2021/12/10 04:31:39;;;;;;;25.60;23.27;;;2.60;99.90;;;;;;5054032;28;20461;-67
2021/12/10 04:34:06;;;;;;;24.40;22.40;;;2.50;99.90;;;;;;5055182;28;20515;-67
2021/12/10 04:36:34;;;;;;;24.37;22.37;;;2.50;99.90;;;;;;5059505;28;20494;-67
2021/12/10 04:39:01;;;;;;;27.43;22.70;;;2.50;99.90;;;;;;5051803;28;20462;-67
2021/12/10 04:41:30;;;;;;;22.77;21.27;;;2.50;99.90;;;;;;5061162;28;20481;-67
2021/12/10 04:43:56;;;;;;;23.27;21.10;;;2.50;99.90;;;;;;5057897;28;20540;-67
2021/12/10 04:46:23;;;;;;;23.90;21.87;;;2.50;99.90;;;;;;5057935;28;20459;-67
2021/12/10 04:48:54;;;;;;;23.37;21.63;;;2.50;99.90;;;;;;5060902;28;20463;-67
2021/12/10 04:51:24;;;;;;;23.13;21.67;;;2.50;99.90;;;;;;5055087;28;20501;-67
2021/12/10 04:53:51;;;;;;;24.60;22.23;;;2.50;99.90;;;;;;5054222;28;20473;-67
2021/12/10 04:56:18;;;;;;;24.40;22.10;;;2.50;99.90;;;;;;5054959;28;20827;-67
2021/12/10 04:58:47;;;;;;;22.83;21.27;;;2.50;99.90;;;;;;5051566;28;20488;-67
2021/12/10 05:01:14;;;;;;;24.20;21.90;;;2.50;99.90;;;;;;5048235;28;20808;-67
2021/12/10 05:03:42;;;;;;;24.13;21.87;;;2.50;99.90;;;;;;5052517;28;20526;-67
2021/12/10 05:06:09;;;;;;;23.37;21.47;;;2.40;99.90;;;;;;5054031;28;20759;-67
2021/12/10 05:08:37;;;;;;;24.20;22.20;;;2.40;99.90;;;;;;5054350;28;20996;-67
2021/12/10 05:11:07;;;;;;;24.43;22.10;;;2.50;99.90;;;;;;5051323;28;20863;-67
2021/12/10 05:13:35;;;;;;;24.50;21.80;;;2.50;99.90;;;;;;5049451;28;21000;-67
2021/12/10 05:16:04;;;;;;;23.93;21.77;;;2.50;99.90;;;;;;5047073;28;20964;-67
2021/12/10 05:18:35;;;;;;;24.10;21.90;;;2.50;99.90;;;;;;5049893;28;20528;-67
2021/12/10 05:21:03;;;;;;;22.40;20.90;;;2.50;99.90;;;;;;5057712;28;20485;-67
2021/12/10 05:23:31;;;;;;;24.43;22.17;;;2.50;99.90;;;;;;5052267;28;20466;-67
2021/12/10 05:25:58;;;;;;;24.07;22.20;;;2.50;99.90;;;;;;5050926;28;20489;-67
2021/12/10 05:28:25;;;;;;;24.00;22.10;;;2.40;99.90;;;;;;5059534;28;20466;-66
2021/12/10 05:30:55;;;;;;;24.57;22.20;;;2.40;99.90;;;;;;5053970;28;20474;-67
2021/12/10 05:33:25;;;;;;;22.37;20.87;;;2.40;99.90;;;;;;5057992;28;20462;-67
2021/12/10 05:35:52;;;;;;;24.53;22.10;;;2.40;99.90;;;;;;5061340;28;20462;-67
2021/12/10 05:38:21;;;;;;;24.50;22.20;;;2.40;99.90;;;;;;5063264;28;20549;-67
2021/12/10 05:40:50;;;;;;;25.30;23.10;;;2.40;99.90;;;;;;5063358;28;20483;-67
2021/12/10 05:43:17;;;;;;;24.67;22.53;;;2.30;99.90;;;;;;5057672;28;20469;-67
2021/12/10 05:45:45;;;;;;;25.57;23.40;;;2.30;99.90;;;;;;5063309;28;20526;-67
2021/12/10 05:48:13;;;;;;;24.97;22.70;;;2.30;99.90;;;;;;5058520;28;20467;-67
2021/12/10 05:50:41;;;;;;;26.30;23.23;;;2.20;99.90;;;;;;5058798;28;20968;-67
2021/12/10 05:53:09;;;;;;;24.00;21.90;;;2.10;99.90;;;;;;5061760;28;21038;-67
2021/12/10 05:55:38;;;;;;;24.57;22.30;;;2.10;99.90;;;;;;5056378;28;20455;-67
2021/12/10 05:58:06;;;;;;;25.70;22.97;;;2.10;99.90;;;;;;5060666;28;20552;-67
2021/12/10 06:00:37;;;;;;;25.10;22.73;;;2.10;99.90;;;;;;5059317;28;20467;-67
2021/12/10 06:03:04;;;;;;;24.83;22.40;;;2.00;99.90;;;;;;5063073;28;20473;-67
2021/12/10 06:05:33;;;;;;;25.60;23.07;;;2.00;99.90;;;;;;5059443;28;20502;-67
2021/12/10 06:08:02;;;;;;;24.00;22.40;;;1.90;99.90;;;;;;5055020;28;20489;-67
2021/12/10 06:10:29;;;;;;;25.90;23.10;;;1.90;99.90;;;;;;5056691;28;20459;-67
2021/12/10 06:12:57;;;;;;;26.10;23.07;;;1.90;99.90;;;;;;5057312;28;21032;-67
2021/12/10 06:15:26;;;;;;;31.07;22.87;;;1.90;99.90;;;;;;5057384;28;20458;-67
2021/12/10 06:17:53;;;;;;;24.30;22.30;;;2.00;99.90;;;;;;5053695;28;20462;-67
2021/12/10 06:20:29;;;;;;;27.40;23.10;;;2.10;99.90;;;;;;5054439;28;20823;-67
2021/12/10 06:22:57;;;;;;;25.47;22.97;;;2.10;99.90;;;;;;5047989;28;20464;-67
2021/12/10 06:25:25;;;;;;;25.47;22.90;;;2.20;99.90;;;;;;5054270;28;20583;-67
2021/12/10 06:27:53;;;;;;;24.03;22.03;;;2.20;99.90;;;;;;5062667;28;20473;-67
2021/12/10 06:30:22;;;;;;;25.07;22.87;;;2.20;99.90;;;;;;5056949;28;20813;-67
2021/12/10 06:32:51;;;;;;;27.17;24.50;;;2.20;99.90;;;;;;5059247;28;20964;-67
2021/12/10 06:35:21;;;;;;;33.13;23.93;;;2.20;99.90;;;;;;5062978;28;21001;-67
2021/12/10 06:37:49;;;;;;;28.50;24.10;;;2.30;99.90;;;;;;5055917;28;20493;-68
2021/12/10 06:40:19;;;;;;;25.90;23.40;;;2.30;99.90;;;;;;5057302;28;20550;-67
2021/12/10 06:42:47;;;;;;;27.07;24.47;;;2.30;99.90;;;;;;5056533;28;20819;-67
2021/12/10 06:45:16;;;;;;;28.13;25.20;;;2.40;99.90;;;;;;5053128;28;20490;-67
2021/12/10 06:47:47;;;;;;;38.23;24.23;;;2.40;99.90;;;;;;5052356;28;20467;-67
2021/12/10 06:50:16;;;;;;;26.30;23.90;;;2.40;99.90;;;;;;5057226;28;20485;-69
2021/12/10 06:52:43;;;;;;;28.23;25.60;;;2.40;99.90;;;;;;5061452;28;20804;-67
2021/12/10 06:55:10;;;;;;;32.20;25.03;;;2.50;99.90;;;;;;5055511;28;20557;-67
2021/12/10 06:57:37;;;;;;;30.70;24.70;;;2.50;99.90;;;;;;5047931;28;20472;-67
2021/12/10 07:00:07;;;;;;;27.47;24.43;;;2.60;99.90;;;;;;5052935;28;20843;-67
2021/12/10 07:02:34;;;;;;;28.33;23.90;;;2.60;99.90;;;;;;5050248;28;20467;-67
2021/12/10 07:05:01;;;;;;;31.90;25.37;;;2.60;99.90;;;;;;5045041;28;20527;-67
2021/12/10 07:07:29;;;;;;;26.33;23.80;;;2.70;99.90;;;;;;5056570;28;20967;-67
2021/12/10 07:09:58;;;;;;;26.40;23.53;;;2.70;99.90;;;;;;5054675;28;20468;-67
2021/12/10 07:12:25;;;;;;;29.30;23.17;;;2.80;99.90;;;;;;5055019;28;20460;-69
2021/12/10 07:14:52;;;;;;;24.60;22.30;;;2.80;99.90;;;;;;5057588;28;20823;-70
2021/12/10 07:17:20;;;;;;;23.40;21.53;;;2.90;99.90;;;;;;5053815;28;20463;-69
2021/12/10 07:19:47;;;;;;;26.13;21.83;;;2.90;99.90;;;;;;5063889;28;20467;-69
2021/12/10 07:22:14;;;;;;;24.17;22.33;;;2.90;99.90;;;;;;5052069;28;21472;-66
2021/12/10 07:24:42;;;;;;;33.10;21.57;;;2.90;99.90;;;;;;5060181;28;20487;-69
2021/12/10 07:27:11;;;;;;;22.17;20.30;;;3.00;99.90;;;;;;5051871;28;20489;-68
2021/12/10 07:29:38;;;;;;;35.77;21.53;;;3.00;99.90;;;;;;5054614;28;20537;-68
2021/12/10 07:32:06;;;;;;;22.73;20.43;;;3.00;99.90;;;;;;5051892;28;20580;-68
2021/12/10 07:34:34;;;;;;;21.37;19.63;;;3.00;99.90;;;;;;5056510;28;20463;-67
2021/12/10 07:37:01;;;;;;;21.60;19.70;;;3.00;99.90;;;;;;5056611;28;20964;-67
2021/12/10 07:39:30;;;;;;;20.80;18.70;;;3.10;99.90;;;;;;5055264;28;20542;-67
2021/12/10 07:42:00;;;;;;;20.97;18.93;;;3.10;99.90;;;;;;5060713;28;20472;-69
2021/12/10 07:44:27;;;;;;;21.30;19.30;;;3.10;99.90;;;;;;5054252;28;20463;-68
2021/12/10 07:46:55;;;;;;;21.27;19.10;;;3.20;99.90;;;;;;5048070;28;20474;-69
2021/12/10 07:49:28;;;;;;;20.77;18.60;;;3.20;99.90;;;;;;5048779;28;21166;-67
2021/12/10 07:51:58;;;;;;;21.30;19.57;;;3.20;99.90;;;;;;5047135;28;20499;-67
2021/12/10 07:54:26;;;;;;;20.60;18.87;;;3.30;99.90;;;;;;5040782;28;20472;-69
2021/12/10 07:56:54;;;;;;;21.67;19.37;;;3.30;99.90;;;;;;5050263;28;20545;-67
2021/12/10 07:59:21;;;;;;;20.23;18.33;;;3.30;99.90;;;;;;5050205;28;20478;-67
2021/12/10 08:01:48;;;;;;;21.70;18.53;;;3.30;99.90;;;;;;5049548;28;20468;-67
2021/12/10 08:04:17;;;;;;;21.40;19.60;;;3.40;99.90;;;;;;5044673;28;20482;-67
2021/12/10 08:06:44;;;;;;;21.00;18.90;;;3.30;99.90;;;;;;5042803;28;20495;-67
2021/12/10 08:09:12;;;;;;;21.43;19.37;;;3.40;99.90;;;;;;5040192;28;20950;-67
2021/12/10 08:11:40;;;;;;;21.17;19.07;;;3.40;99.90;;;;;;5044323;28;20458;-67
2021/12/10 08:14:08;;;;;;;21.13;18.90;;;3.40;99.90;;;;;;5049159;28;22501;-67
2021/12/10 08:16:36;;;;;;;19.93;18.30;;;3.50;99.90;;;;;;5041181;28;20533;-67
2021/12/10 08:19:03;;;;;;;19.53;18.07;;;3.50;99.90;;;;;;5048879;28;20520;-67
2021/12/10 08:21:31;;;;;;;19.97;18.07;;;3.40;99.90;;;;;;5044117;28;20460;-67
2021/12/10 08:23:58;;;;;;;19.43;18.07;;;3.50;99.90;;;;;;5039629;28;20828;-67
2021/12/10 08:26:27;;;;;;;19.57;17.83;;;3.50;99.90;;;;;;5047542;28;20501;-67
2021/12/10 08:28:54;;;;;;;19.37;17.63;;;3.50;99.90;;;;;;5043368;28;20460;-67
2021/12/10 08:31:21;;;;;;;20.03;18.63;;;3.50;99.90;;;;;;5046567;28;20464;-67
2021/12/10 08:33:49;;;;;;;19.10;17.27;;;3.50;99.90;;;;;;5040551;28;21050;-67
2021/12/10 08:36:18;;;;;;;19.83;17.27;;;3.50;99.90;;;;;;5050080;28;22569;-68
2021/12/10 08:38:46;;;;;;;18.53;17.03;;;3.60;99.90;;;;;;5044903;28;20502;-69
2021/12/10 08:41:16;;;;;;;18.87;17.40;;;3.60;99.90;;;;;;5056248;28;20487;-67
2021/12/10 08:43:46;;;;;;;19.67;17.73;;;3.70;99.90;;;;;;5048913;28;20478;-67
2021/12/10 08:46:14;;;;;;;19.47;17.50;;;3.70;99.90;;;;;;5053414;28;21507;-67
2021/12/10 08:48:43;;;;;;;17.83;16.63;;;3.80;99.90;;;;;;5046801;28;20490;-67
2021/12/10 08:51:22;;;;;;;19.47;17.80;;;3.80;99.90;;;;;;5051280;28;20467;-67
2021/12/10 08:53:49;;;;;;;21.63;17.20;;;3.90;99.90;;;;;;5049932;28;20524;-67
2021/12/10 08:56:16;;;;;;;17.60;16.40;;;4.00;99.90;;;;;;5050517;28;20483;-67
2021/12/10 08:58:44;;;;;;;21.37;18.67;;;4.00;99.90;;;;;;5047394;28;20455;-67
2021/12/10 09:01:14;;;;;;;18.93;17.30;;;4.00;99.90;;;;;;5047348;28;20474;-67
2021/12/10 09:03:42;;;;;;;19.10;17.43;;;4.10;99.90;;;;;;5050361;28;20464;-68
2021/12/10 09:06:10;;;;;;;20.13;17.90;;;4.00;99.90;;;;;;5049969;28;20492;-67
2021/12/10 09:08:37;;;;;;;25.53;18.90;;;4.10;99.90;;;;;;5052321;28;20945;-67
2021/12/10 09:11:05;;;;;;;19.10;17.70;;;4.20;99.90;;;;;;5051448;28;21073;-67
2021/12/10 09:13:32;;;;;;;18.40;17.17;;;4.10;99.90;;;;;;5050732;28;20574;-67
2021/12/10 09:16:04;;;;;;;19.03;17.53;;;4.10;99.90;;;;;;5049946;28;20659;-67
2021/12/10 09:18:30;;;;;;;19.07;17.57;;;4.20;99.90;;;;;;5046988;28;20463;-67
2021/12/10 09:21:02;;;;;;;18.70;17.50;;;4.20;99.90;;;;;;5052800;28;20459;-68
2021/12/10 09:23:30;;;;;;;19.13;17.77;;;4.30;99.90;;;;;;5046555;28;20469;-70
2021/12/10 09:26:00;;;;;;;23.53;18.17;;;4.40;99.90;;;;;;5046793;28;20746;-69
2021/12/10 09:28:27;;;;;;;19.90;18.00;;;4.40;99.90;;;;;;5044576;28;20474;-71
2021/12/10 09:30:59;;;;;;;20.40;17.93;;;4.40;99.90;;;;;;5044422;28;20488;-70
2021/12/10 09:33:28;;;;;;;23.80;18.60;;;4.40;99.90;;;;;;5048665;28;20968;-70
2021/12/10 09:35:55;;;;;;;18.53;17.03;;;4.50;99.90;;;;;;5044775;28;20495;-68
2021/12/10 09:38:24;;;;;;;20.50;17.87;;;4.40;99.90;;;;;;5047826;28;20471;-67
2021/12/10 09:40:54;;;;;;;18.83;17.20;;;4.40;99.90;;;;;;5041065;28;20582;-67
2021/12/10 09:43:21;;;;;;;19.73;17.33;;;4.40;99.90;;;;;;5046772;28;20470;-67
2021/12/10 09:45:49;;;;;;;18.60;17.30;;;4.40;99.90;;;;;;5051356;28;20981;-68
2021/12/10 09:48:19;;;;;;;19.13;17.93;;;4.40;99.90;;;;;;5045471;28;20844;-67
2021/12/10 09:50:54;;;;;;;19.47;17.50;;;4.50;99.90;;;;;;5047765;28;20470;-67
2021/12/10 09:53:22;;;;;;;19.33;17.70;;;4.40;99.90;;;;;;5050144;28;20498;-67
2021/12/10 09:55:49;;;;;;;19.60;18.10;;;4.50;99.90;;;;;;5054128;28;20468;-67
2021/12/10 09:58:18;;;;;;;20.07;17.83;;;4.40;99.90;;;;;;5046758;28;20566;-67
2021/12/10 10:00:47;;;;;;;19.67;18.07;;;4.40;99.90;;;;;;5051592;28;20463;-68
2021/12/10 10:03:18;;;;;;;19.20;17.70;;;4.50;99.90;;;;;;5039501;28;20470;-67
2021/12/10 10:05:46;;;;;;;18.03;16.90;;;4.40;99.90;;;;;;5039335;28;20481;-67
2021/12/10 10:08:16;;;;;;;20.30;17.73;;;4.50;99.90;;;;;;5042856;28;20554;-67
2021/12/10 10:10:48;;;;;;;20.63;18.63;;;4.50;99.90;;;;;;5039227;28;20474;-67
2021/12/10 10:13:17;;;;;;;19.30;17.60;;;4.60;99.90;;;;;;5045808;28;20473;-68
2021/12/10 10:15:45;;;;;;;18.77;16.87;;;4.60;99.90;;;;;;5047784;28;20482;-67
2021/12/10 10:18:15;;;;;;;19.43;17.83;;;4.70;99.90;;;;;;5045515;28;20456;-67
2021/12/10 10:20:46;;;;;;;21.13;18.30;;;4.70;99.90;;;;;;5046147;28;20467;-68
2021/12/10 10:23:14;;;;;;;18.80;17.40;;;4.70;99.90;;;;;;5046361;28;20989;-67
2021/12/10 10:25:44;;;;;;;19.83;17.93;;;4.80;99.90;;;;;;5047619;28;20494;-68
2021/12/10 10:28:11;;;;;;;19.53;18.03;;;4.80;99.90;;;;;;5042469;28;20980;-68
2021/12/10 10:30:42;;;;;;;18.43;16.97;;;4.80;99.90;;;;;;5049040;28;20452;-68
2021/12/10 10:33:11;;;;;;;17.10;16.10;;;4.90;99.90;;;;;;5044138;28;20973;-68
2021/12/10 10:35:41;;;;;;;18.50;17.03;;;4.90;99.90;;;;;;5046096;28;20468;-68
2021/12/10 10:38:10;;;;;;;18.37;17.07;;;4.90;99.90;;;;;;5046357;28;20820;-68
2021/12/10 10:40:44;;;;;;;18.83;17.20;;;4.90;99.90;;;;;;5044966;28;20531;-68
2021/12/10 10:43:11;;;;;;;18.20;17.00;;;4.90;99.90;;;;;;5040888;28;20475;-68
2021/12/10 10:45:42;;;;;;;18.20;16.70;;;5.00;99.90;;;;;;5051959;28;20486;-68
2021/12/10 10:48:11;;;;;;;19.47;17.40;;;5.00;99.90;;;;;;5049584;28;20530;-68
2021/12/10 10:50:41;;;;;;;20.03;18.17;;;4.90;99.90;;;;;;5045738;28;20521;-68
2021/12/10 10:53:11;;;;;;;20.97;18.37;;;5.00;99.90;;;;;;5030865;28;21301;-68
2021/12/10 10:55:48;;;;;;;19.60;17.90;;;4.90;99.90;;;;;;5046671;28;20482;-68
2021/12/10 10:58:17;;;;;;;19.37;17.90;;;4.90;99.90;;;;;;5045797;28;20467;-68
2021/12/10 11:00:52;;;;;;;20.10;18.20;;;4.90;99.90;;;;;;5047977;28;20470;-68
2021/12/10 11:03:22;;;;;;;19.60;18.40;;;4.90;99.90;;;;;;5047423;28;20464;-68
2021/12/10 11:05:52;;;;;;;18.97;17.53;;;4.90;99.90;;;;;;5045484;28;20490;-68
2021/12/10 11:08:28;;;;;;;19.53;17.83;;;4.80;99.90;;;;;;5045727;28;20464;-68
2021/12/10 11:11:05;;;;;;;19.00;17.20;;;4.80;99.90;;;;;;5045475;28;20468;-68
2021/12/10 11:13:32;;;;;;;18.67;17.47;;;4.80;99.90;;;;;;5045939;28;20466;-68
2021/12/10 11:16:03;;;;;;;19.57;17.90;;;4.70;99.90;;;;;;5054083;28;20981;-68
2021/12/10 11:18:42;;;;;;;18.73;17.57;;;4.70;99.90;;;;;;5050714;28;20830;-68
2021/12/10 11:21:10;;;;;;;19.90;17.93;;;4.80;99.90;;;;;;5039585;28;20479;-68
2021/12/10 11:23:39;;;;;;;19.40;17.70;;;4.80;99.90;;;;;;5043537;28;20997;-67
2021/12/10 11:26:08;;;;;;;19.50;18.10;;;4.90;99.90;;;;;;5041867;28;20895;-67
2021/12/10 11:28:38;;;;;;;19.27;17.80;;;4.80;99.90;;;;;;5042679;28;20467;-69
2021/12/10 11:31:09;;;;;;;19.63;17.73;;;4.80;99.90;;;;;;5042652;28;20559;-70
2021/12/10 11:33:39;;;;;;;19.73;18.23;;;4.90;99.90;;;;;;5049624;28;20472;-69
2021/12/10 11:36:09;;;;;;;19.73;18.23;;;4.90;99.90;;;;;;5046811;28;20507;-70
2021/12/10 11:38:37;;;;;;;19.30;17.83;;;4.90;99.90;;;;;;5049314;28;20472;-70
2021/12/10 11:41:05;;;;;;;18.47;17.40;;;4.80;99.90;;;;;;5048422;28;20482;-68
2021/12/10 11:43:56;;;;;;;24.20;18.53;;;4.90;99.90;;;;;;5055614;28;20456;-69
2021/12/10 11:46:51;;;;;;;20.93;19.40;;;4.60;99.90;;;;;;5043691;28;21075;-69
2021/12/10 11:49:23;;;;;;;22.50;20.60;;;4.60;99.90;;;;;;5050833;28;20467;-70
2021/12/10 11:51:56;;;;;;;22.00;20.40;;;4.60;99.90;;;;;;5047312;28;21059;-70
2021/12/10 11:54:27;;;;;;;23.00;21.07;;;4.50;99.90;;;;;;5043432;28;20490;-70
2021/12/10 11:56:58;;;;;;;28.17;25.57;;;4.40;99.90;;;;;;5046970;28;21070;-68
2021/12/10 11:59:29;;;;;;;23.50;21.20;;;4.40;99.90;;;;;;5047461;28;21216;-70
2021/12/10 12:01:59;;;;;;;23.10;20.93;;;4.40;99.90;;;;;;5043456;28;20467;-67
2021/12/10 12:04:31;;;;;;;23.13;21.57;;;4.50;99.90;;;;;;5048892;28;20470;-68
2021/12/10 12:07:35;;;;;;;23.20;21.20;;;4.50;99.90;;;;;;5051649;28;20483;-69
2021/12/10 12:10:11;;;;;;;26.30;24.40;;;4.30;99.90;;;;;;5044702;28;20470;-69
2021/12/10 12:12:41;;;;;;;28.50;26.20;;;4.30;99.90;;;;;;5043541;28;20468;-68
2021/12/10 12:15:18;;;;;;;29.80;27.30;;;4.30;99.90;;;;;;5048392;28;20468;-67
2021/12/10 12:17:48;;;;;;;30.03;27.83;;;4.30;99.90;;;;;;5041807;28;20472;-67
2021/12/10 12:20:38;;;;;;;29.83;27.33;;;4.20;99.90;;;;;;5046576;28;21083;-67
2021/12/10 12:25:56;;;;;;;30.90;27.57;;;3.90;99.90;;;;;;5047897;28;20946;-69
2021/12/10 12:28:25;;;;;;;30.00;27.70;;;3.90;99.90;;;;;;5047255;28;20474;-69
2021/12/10 12:31:08;;;;;;;29.80;27.40;;;4.00;99.90;;;;;;5052806;28;20464;-68
2021/12/10 12:33:51;;;;;;;28.23;26.10;;;4.00;99.90;;;;;;5053519;28;20472;-69
2021/12/10 12:36:18;;;;;;;31.30;28.33;;;4.10;99.90;;;;;;5039324;28;20969;-70
2021/12/10 12:38:49;;;;;;;29.30;26.70;;;4.10;99.90;;;;;;5047757;28;20598;-70
2021/12/10 12:41:21;;;;;;;30.97;27.57;;;4.20;99.90;;;;;;5048076;28;20479;-71
2021/12/10 12:44:07;;;;;;;29.90;27.50;;;4.20;99.90;;;;;;5048425;28;20851;-70
2021/12/10 12:47:05;;;;;;;31.83;28.50;;;4.30;99.90;;;;;;5047538;28;20486;-68
2021/12/10 12:49:52;;;;;;;30.47;27.67;;;4.40;99.90;;;;;;5045716;28;20547;-69
2021/12/10 12:52:21;;;;;;;33.83;28.50;;;4.30;99.90;;;;;;5044728;28;20487;-70
2021/12/10 12:55:14;;;;;;;30.73;28.10;;;4.30;99.90;;;;;;5049266;28;20564;-67
2021/12/10 12:57:44;;;;;;;30.47;27.90;;;4.30;99.90;;;;;;5053222;28;20497;-68
2021/12/10 13:00:19;;;;;;;30.47;27.83;;;4.30;99.90;;;;;;5043213;28;20459;-68